createdAt,value
2017-08-18T00:02:08.521Z,25.47
2017-08-18T00:04:34.792Z,25.50
2017-08-18T00:07:01.824Z,25.40
2017-08-18T00:09:28.861Z,25.10
2017-08-18T00:11:55.117Z,27.43
2017-08-18T00:14:22.195Z,26.37
2017-08-18T00:16:48.447Z,27.00
2017-08-18T00:19:14.713Z,25.47
2017-08-18T00:21:40.975Z,27.87
2017-08-18T00:24:07.260Z,26.40
2017-08-18T00:26:33.528Z,27.00
2017-08-18T00:29:00.515Z,27.83
2017-08-18T00:31:26.783Z,26.80
2017-08-18T00:33:53.057Z,27.23
2017-08-18T00:36:19.337Z,27.33
2017-08-18T00:38:46.382Z,27.20
2017-08-18T00:41:13.404Z,26.90
2017-08-18T00:43:39.721Z,26.93
2017-08-18T00:46:06.024Z,28.20
2017-08-18T00:48:32.311Z,27.20
2017-08-18T00:50:58.626Z,25.80
2017-08-18T00:53:24.910Z,27.43
2017-08-18T00:55:51.180Z,27.07
2017-08-18T00:58:17.493Z,26.57
2017-08-18T01:00:43.782Z,28.77
2017-08-18T01:03:10.811Z,27.07
2017-08-18T01:05:37.856Z,26.90
2017-08-18T01:08:05.133Z,29.03
2017-08-18T01:10:31.469Z,27.43
2017-08-18T01:12:58.746Z,27.70
2017-08-18T01:15:25.017Z,27.73
2017-08-18T01:17:51.295Z,25.23
2017-08-18T01:20:17.572Z,28.20
2017-08-18T01:22:43.853Z,28.30
2017-08-18T01:25:10.113Z,26.97
2017-08-18T01:27:36.397Z,26.80
2017-08-18T01:30:02.692Z,26.60
2017-08-18T01:32:28.980Z,25.47
2017-08-18T01:34:55.232Z,29.73
2017-08-18T01:37:21.517Z,28.27
2017-08-18T01:39:47.789Z,29.80
2017-08-18T01:42:14.058Z,28.37
2017-08-18T01:44:41.079Z,29.00
2017-08-18T01:47:07.333Z,28.60
2017-08-18T01:49:33.623Z,29.13
2017-08-18T01:51:59.912Z,30.53
2017-08-18T01:54:26.194Z,29.53
2017-08-18T01:56:52.473Z,30.53
2017-08-18T01:59:18.720Z,29.73
2017-08-18T02:01:44.976Z,29.37
2017-08-18T02:04:11.241Z,32.17
2017-08-18T02:06:37.533Z,30.30
2017-08-18T02:09:03.861Z,29.67
2017-08-18T02:11:30.117Z,30.10
2017-08-18T02:13:57.117Z,28.43
2017-08-18T02:16:23.398Z,26.80
2017-08-18T02:18:49.649Z,26.47
2017-08-18T02:21:16.716Z,28.83
2017-08-18T02:23:43.007Z,28.07
2017-08-18T02:26:09.338Z,29.60
2017-08-18T02:28:36.332Z,29.23
2017-08-18T02:31:02.670Z,29.27
2017-08-18T02:33:28.920Z,30.93
2017-08-18T02:35:55.180Z,29.40
2017-08-18T02:38:21.458Z,27.57
2017-08-18T02:40:47.769Z,26.93
2017-08-18T02:43:14.054Z,28.27
2017-08-18T02:45:41.069Z,27.23
2017-08-18T02:48:07.328Z,26.30
2017-08-18T02:50:34.347Z,27.60
2017-08-18T02:53:00.633Z,31.10
2017-08-18T02:55:26.901Z,28.67
2017-08-18T02:57:53.177Z,28.47
2017-08-18T03:00:19.459Z,28.60
2017-08-18T03:02:45.771Z,29.20
2017-08-18T03:05:12.052Z,27.50
2017-08-18T03:07:38.338Z,27.40
2017-08-18T03:10:04.602Z,28.43
2017-08-18T03:12:31.626Z,29.07
2017-08-18T03:14:57.892Z,28.17
2017-08-18T03:17:24.880Z,28.07
2017-08-18T03:19:51.151Z,26.67
2017-08-18T03:22:18.156Z,28.37
2017-08-18T03:24:44.433Z,28.80
2017-08-18T03:27:10.724Z,30.63
2017-08-18T03:29:37.038Z,30.30
2017-08-18T03:32:03.301Z,31.60
2017-08-18T03:34:31.062Z,30.67
2017-08-18T03:36:57.326Z,30.47
2017-08-18T03:39:24.342Z,32.13
2017-08-18T03:41:50.603Z,32.13
2017-08-18T03:44:17.625Z,32.17
2017-08-18T03:46:44.629Z,31.00
2017-08-18T03:49:10.899Z,30.80
2017-08-18T03:51:37.928Z,32.53
2017-08-18T03:54:04.196Z,31.67
2017-08-18T03:56:31.183Z,32.30
2017-08-18T03:58:57.466Z,30.97
2017-08-18T04:01:24.466Z,30.97
2017-08-18T04:03:50.710Z,30.33
2017-08-18T04:06:16.980Z,30.77
2017-08-18T04:08:43.990Z,31.83
2017-08-18T04:11:10.264Z,31.23
2017-08-18T04:13:36.564Z,29.37
2017-08-18T04:16:03.605Z,29.47
2017-08-18T04:18:30.648Z,32.27
2017-08-18T04:20:56.938Z,30.33
2017-08-18T04:23:23.205Z,30.80
2017-08-18T04:25:49.483Z,30.03
2017-08-18T04:28:15.774Z,30.67
2017-08-18T04:30:42.071Z,29.73
2017-08-18T04:33:08.346Z,29.97
2017-08-18T04:35:34.620Z,31.07
2017-08-18T04:38:00.911Z,28.80
2017-08-18T04:40:28.004Z,30.87
2017-08-18T04:42:54.308Z,31.57
2017-08-18T04:45:20.572Z,30.60
2017-08-18T04:47:46.858Z,29.57
2017-08-18T04:50:13.158Z,29.77
2017-08-18T04:52:40.178Z,30.10
2017-08-18T04:55:06.433Z,28.90
2017-08-18T04:57:32.717Z,28.00
2017-08-18T04:59:58.985Z,28.40
2017-08-18T05:02:26.017Z,28.83
2017-08-18T05:04:52.279Z,30.00
2017-08-18T05:07:19.286Z,30.07
2017-08-18T05:09:45.550Z,26.90
2017-08-18T05:12:12.653Z,29.27
2017-08-18T05:14:38.932Z,27.07
2017-08-18T05:17:05.214Z,27.33
2017-08-18T05:19:31.502Z,27.60
2017-08-18T05:21:57.802Z,26.77
2017-08-18T05:24:24.826Z,25.80
2017-08-18T05:26:51.091Z,25.80
2017-08-18T05:29:18.372Z,27.30
2017-08-18T05:31:44.641Z,24.87
2017-08-18T05:34:18.041Z,25.07
2017-08-18T05:36:44.330Z,25.07
2017-08-18T05:39:10.660Z,25.50
2017-08-18T05:41:37.038Z,24.83
2017-08-18T05:44:04.083Z,24.90
2017-08-18T05:46:30.373Z,24.70
2017-08-18T05:48:56.648Z,23.87
2017-08-18T05:51:23.712Z,22.77
2017-08-18T05:53:50.008Z,22.30
2017-08-18T05:56:16.293Z,21.67
2017-08-18T05:58:42.596Z,22.93
2017-08-18T06:01:09.680Z,21.13
2017-08-18T06:03:35.981Z,21.23
2017-08-18T06:06:02.983Z,21.93
2017-08-18T06:08:29.281Z,21.40
2017-08-18T06:10:55.839Z,19.97
2017-08-18T06:13:22.930Z,19.73
2017-08-18T06:15:49.955Z,20.97
2017-08-18T06:18:16.245Z,20.50
2017-08-18T06:20:42.534Z,20.40
2017-08-18T06:23:08.805Z,19.07
2017-08-18T06:25:35.098Z,17.40
2017-08-18T06:28:02.109Z,18.07
2017-08-18T06:30:28.396Z,17.90
2017-08-18T06:32:54.664Z,16.80
2017-08-18T06:35:21.879Z,17.83
2017-08-18T06:37:48.167Z,17.13
2017-08-18T06:40:14.439Z,17.37
2017-08-18T06:42:40.721Z,16.37
2017-08-18T06:45:07.008Z,16.30
2017-08-18T06:47:33.273Z,16.07
2017-08-18T06:49:59.565Z,15.93
2017-08-18T06:52:25.812Z,15.40
2017-08-18T06:54:52.074Z,15.17
2017-08-18T06:57:18.329Z,13.70
2017-08-18T06:59:45.361Z,15.37
2017-08-18T07:02:11.643Z,13.47
2017-08-18T07:05:14.451Z,15.03
2017-08-18T07:07:41.050Z,14.37
2017-08-18T07:10:07.329Z,14.57
2017-08-18T07:12:34.355Z,14.53
2017-08-18T07:15:00.672Z,15.00
2017-08-18T07:17:26.933Z,15.40
2017-08-18T07:19:53.188Z,14.33
2017-08-18T07:22:19.453Z,16.80
2017-08-18T07:24:45.723Z,15.37
2017-08-18T07:27:12.757Z,16.07
2017-08-18T07:29:39.779Z,16.53
2017-08-18T07:32:06.074Z,16.67
2017-08-18T07:34:33.108Z,17.53
2017-08-18T07:36:59.405Z,16.50
2017-08-18T07:39:25.677Z,16.60
2017-08-18T07:41:51.956Z,16.80
2017-08-18T07:44:18.240Z,17.30
2017-08-18T07:46:44.524Z,17.30
2017-08-18T07:49:10.809Z,16.20
2017-08-18T07:51:37.097Z,17.97
2017-08-18T07:54:04.116Z,18.27
2017-08-18T07:56:30.364Z,15.47
2017-08-18T07:58:56.645Z,17.07
2017-08-18T08:01:22.922Z,16.00
2017-08-18T08:03:49.179Z,15.97
2017-08-18T08:06:15.465Z,16.67
2017-08-18T08:08:41.754Z,15.40
2017-08-18T08:11:08.016Z,15.70
2017-08-18T08:13:34.327Z,15.43
2017-08-18T08:16:00.628Z,16.53
2017-08-18T08:18:26.926Z,14.63
2017-08-18T08:20:53.202Z,15.27
2017-08-18T08:23:19.522Z,15.60
2017-08-18T08:25:45.802Z,15.33
2017-08-18T08:28:12.089Z,15.30
2017-08-18T08:30:38.381Z,14.87
2017-08-18T08:33:04.656Z,13.93
2017-08-18T08:35:30.942Z,13.87
2017-08-18T08:37:57.970Z,13.87
2017-08-18T08:40:24.272Z,14.20
2017-08-18T08:42:50.579Z,14.80
2017-08-18T08:45:16.869Z,13.50
2017-08-18T08:47:43.907Z,12.83
2017-08-18T08:50:10.203Z,12.00
2017-08-18T08:52:36.492Z,13.73
2017-08-18T08:55:03.517Z,12.73
2017-08-18T08:57:30.557Z,12.77
2017-08-18T08:59:56.833Z,12.33
2017-08-18T09:02:23.841Z,10.53
2017-08-18T09:04:50.113Z,11.00
2017-08-18T09:07:16.392Z,9.73
2017-08-18T09:09:42.673Z,9.67
2017-08-18T09:12:08.982Z,10.40
2017-08-18T09:14:35.264Z,9.90
2017-08-18T09:17:01.565Z,9.40
2017-08-18T09:19:27.861Z,9.10
2017-08-18T09:21:54.306Z,9.17
2017-08-18T09:24:20.662Z,9.17
2017-08-18T09:26:46.972Z,9.27
2017-08-18T09:29:13.249Z,8.53
2017-08-18T09:31:39.511Z,8.63
2017-08-18T09:34:05.823Z,8.13
2017-08-18T09:36:32.095Z,8.20
2017-08-18T09:38:59.102Z,8.37
2017-08-18T09:41:26.760Z,7.57
2017-08-18T09:43:53.818Z,8.40
2017-08-18T09:46:20.075Z,7.70
2017-08-18T09:48:59.485Z,8.60
2017-08-18T09:51:38.046Z,7.90
2017-08-18T09:54:17.497Z,8.23
2017-08-18T09:56:56.218Z,8.17
2017-08-18T09:59:22.532Z,8.07
2017-08-18T10:01:48.765Z,8.40
2017-08-18T10:04:14.995Z,9.07
2017-08-18T10:06:41.220Z,8.07
2017-08-18T10:09:07.454Z,8.50
2017-08-18T10:11:33.661Z,8.37
2017-08-18T10:13:59.894Z,8.17
2017-08-18T10:16:26.101Z,8.47
2017-08-18T10:18:52.300Z,8.47
2017-08-18T10:21:18.525Z,7.70
2017-08-18T10:23:44.727Z,7.90
2017-08-18T10:26:11.706Z,8.30
2017-08-18T10:28:37.909Z,8.30
2017-08-18T10:31:04.152Z,8.20
2017-08-18T10:33:31.105Z,7.50
2017-08-18T10:35:57.631Z,7.57
2017-08-18T10:38:23.880Z,7.57
2017-08-18T10:40:50.119Z,8.50
2017-08-18T10:43:16.340Z,7.90
2017-08-18T10:45:42.582Z,7.77
2017-08-18T10:48:08.788Z,7.83
2017-08-18T10:50:35.013Z,7.83
2017-08-18T10:53:01.201Z,7.30
2017-08-18T10:55:27.410Z,8.40
2017-08-18T10:57:54.477Z,8.20
2017-08-18T11:00:20.673Z,8.00
2017-08-18T11:02:46.933Z,7.40
2017-08-18T11:05:13.161Z,7.70
2017-08-18T11:07:39.378Z,8.70
2017-08-18T11:10:05.582Z,8.03
2017-08-18T11:12:31.863Z,8.13
2017-08-18T11:14:58.071Z,8.80
2017-08-18T11:17:24.282Z,8.73
2017-08-18T11:19:50.501Z,7.60
2017-08-18T11:22:16.719Z,7.33
2017-08-18T11:24:42.951Z,8.00
2017-08-18T11:27:09.188Z,7.50
2017-08-18T11:29:35.387Z,7.87
2017-08-18T11:32:01.600Z,8.17
2017-08-18T11:34:27.825Z,7.77
2017-08-18T11:36:54.772Z,7.60
2017-08-18T11:39:20.983Z,8.30
2017-08-18T11:41:47.176Z,7.87
2017-08-18T11:44:13.379Z,7.47
2017-08-18T11:46:39.583Z,7.57
2017-08-18T11:49:05.815Z,8.03
2017-08-18T11:51:32.056Z,8.00
2017-08-18T11:53:58.391Z,6.90
2017-08-18T11:56:24.608Z,8.13
2017-08-18T11:58:50.825Z,7.50
2017-08-18T12:01:17.040Z,7.30
2017-08-18T12:03:43.233Z,6.87
2017-08-18T12:06:09.453Z,6.10
2017-08-18T12:08:35.656Z,6.07
2017-08-18T12:11:01.876Z,6.43
2017-08-18T12:13:28.103Z,6.97
2017-08-18T12:15:54.341Z,6.90
2017-08-18T12:18:20.565Z,7.40
2017-08-18T12:20:46.816Z,7.33
2017-08-18T12:23:13.016Z,7.27
2017-08-18T12:25:46.048Z,8.30
2017-08-18T12:28:12.247Z,9.53
2017-08-18T12:30:38.457Z,8.97
2017-08-18T12:33:04.672Z,8.53
2017-08-18T12:35:30.905Z,7.70
2017-08-18T12:37:57.208Z,8.53
2017-08-18T12:40:23.411Z,7.20
2017-08-18T12:42:49.639Z,8.23
2017-08-18T12:45:15.891Z,8.03
2017-08-18T12:47:42.170Z,7.13
2017-08-18T12:50:08.489Z,7.63
2017-08-18T12:52:34.716Z,8.90
2017-08-18T12:55:00.961Z,7.17
2017-08-18T12:57:27.185Z,7.80
2017-08-18T12:59:53.424Z,7.17
2017-08-18T13:02:19.668Z,7.53
2017-08-18T13:04:45.884Z,5.87
2017-08-18T13:07:12.120Z,6.50
2017-08-18T13:09:38.320Z,6.67
2017-08-18T13:12:04.529Z,7.83
2017-08-18T13:14:30.780Z,7.60
2017-08-18T13:16:57.008Z,9.33
2017-08-18T13:19:23.250Z,7.47
2017-08-18T13:21:49.458Z,7.57
2017-08-18T13:24:15.688Z,8.10
2017-08-18T13:26:41.940Z,6.90
2017-08-18T13:29:08.176Z,7.53
2017-08-18T13:31:34.380Z,5.80
2017-08-18T13:34:00.607Z,6.10
2017-08-18T13:36:26.832Z,6.70
2017-08-18T13:38:53.052Z,6.90
2017-08-18T13:41:19.265Z,6.50
2017-08-18T13:43:45.509Z,7.47
2017-08-18T13:46:11.714Z,6.40
2017-08-18T13:48:37.908Z,4.70
2017-08-18T13:51:04.132Z,5.20
2017-08-18T13:53:30.419Z,4.83
2017-08-18T13:55:56.622Z,5.13
2017-08-18T13:58:22.833Z,5.40
2017-08-18T14:00:49.799Z,6.00
2017-08-18T14:03:16.013Z,5.80
2017-08-18T14:05:42.226Z,5.33
2017-08-18T14:08:08.443Z,6.03
2017-08-18T14:10:34.665Z,6.50
2017-08-18T14:13:00.915Z,8.00
2017-08-18T14:15:27.888Z,7.60
2017-08-18T14:18:01.031Z,6.00
2017-08-18T14:20:27.266Z,5.60
2017-08-18T14:22:54.224Z,6.03
2017-08-18T14:25:27.393Z,6.73
2017-08-18T14:27:53.696Z,6.73
2017-08-18T14:30:19.977Z,6.90
2017-08-18T14:32:46.265Z,7.50
2017-08-18T14:35:12.557Z,7.63
2017-08-18T14:37:38.838Z,7.90
2017-08-18T14:40:05.127Z,8.17
2017-08-18T14:42:32.147Z,8.20
2017-08-18T14:44:58.425Z,8.30
2017-08-18T14:47:24.730Z,9.17
2017-08-18T14:49:51.736Z,9.20
2017-08-18T14:52:18.008Z,9.77
2017-08-18T14:54:45.024Z,9.37
2017-08-18T14:57:11.343Z,9.90
2017-08-18T14:59:37.616Z,9.50
2017-08-18T15:02:03.932Z,9.40
2017-08-18T15:04:30.959Z,10.27
2017-08-18T15:06:57.289Z,11.47
2017-08-18T15:09:23.613Z,13.07
2017-08-18T15:11:49.900Z,11.03
2017-08-18T15:14:16.264Z,11.93
2017-08-18T15:16:42.560Z,12.17
2017-08-18T15:19:08.876Z,11.50
2017-08-18T15:21:35.893Z,11.40
2017-08-18T15:24:02.224Z,14.00
2017-08-18T15:26:30.161Z,12.60
2017-08-18T15:28:58.025Z,12.00
2017-08-18T15:31:24.552Z,12.60
2017-08-18T15:33:50.975Z,12.23
2017-08-18T15:36:18.563Z,12.67
2017-08-18T15:38:44.876Z,12.53
2017-08-18T15:41:11.155Z,11.77
2017-08-18T15:43:37.491Z,12.57
2017-08-18T15:46:05.468Z,12.83
2017-08-18T15:48:31.784Z,12.57
2017-08-18T15:50:58.080Z,11.07
2017-08-18T15:53:24.348Z,10.03
2017-08-18T15:55:51.470Z,10.23
2017-08-18T15:58:17.756Z,9.90
2017-08-18T16:00:44.073Z,9.83
2017-08-18T16:03:10.377Z,11.03
2017-08-18T16:05:44.262Z,10.20
2017-08-18T16:08:10.538Z,12.50
2017-08-18T16:10:36.831Z,10.40
2017-08-18T16:13:03.124Z,11.33
2017-08-18T16:15:29.431Z,10.23
2017-08-18T16:17:55.716Z,10.30
2017-08-18T16:20:22.039Z,9.60
2017-08-18T16:22:48.322Z,9.83
2017-08-18T16:25:14.663Z,10.23
2017-08-18T16:27:40.959Z,10.03
2017-08-18T16:30:07.255Z,9.67
2017-08-18T16:32:33.545Z,8.80
2017-08-18T16:34:59.840Z,8.53
2017-08-18T16:37:26.124Z,10.30
2017-08-18T16:39:52.425Z,8.53
2017-08-18T16:42:18.735Z,8.70
2017-08-18T16:44:45.030Z,8.00
2017-08-18T16:47:11.395Z,8.40
2017-08-18T16:49:37.700Z,8.60
2017-08-18T16:52:04.010Z,8.43
2017-08-18T16:54:30.287Z,8.60
2017-08-18T16:56:56.557Z,7.90
2017-08-18T16:59:22.825Z,8.17
2017-08-18T17:01:49.124Z,7.47
2017-08-18T17:04:15.394Z,8.80
2017-08-18T17:06:41.716Z,9.10
2017-08-18T17:09:07.977Z,7.63
2017-08-18T17:11:34.256Z,8.00
2017-08-18T17:14:00.554Z,7.63
2017-08-18T17:16:26.825Z,9.40
2017-08-18T17:18:53.101Z,8.83
2017-08-18T17:21:19.375Z,7.60
2017-08-18T17:23:46.527Z,9.33
2017-08-18T17:26:12.876Z,7.80
2017-08-18T17:28:39.178Z,9.30
2017-08-18T17:31:05.463Z,8.43
2017-08-18T17:33:31.757Z,8.47
2017-08-18T17:35:58.013Z,8.17
2017-08-18T17:38:24.355Z,8.57
2017-08-18T17:40:51.406Z,8.20
2017-08-18T17:43:17.680Z,8.47
2017-08-18T17:45:43.970Z,9.50
2017-08-18T17:48:11.081Z,8.30
2017-08-18T17:50:38.127Z,8.77
2017-08-18T17:53:04.409Z,9.40
2017-08-18T17:55:30.686Z,8.70
2017-08-18T17:57:56.973Z,8.40
2017-08-18T18:00:23.245Z,8.73
2017-08-18T18:02:49.549Z,9.70
2017-08-18T18:05:15.848Z,8.40
2017-08-18T18:07:42.142Z,9.97
2017-08-18T18:10:08.422Z,10.00
2017-08-18T18:12:34.724Z,10.43
2017-08-18T18:15:01.005Z,11.10
2017-08-18T18:17:27.430Z,12.13
2017-08-18T18:19:53.808Z,11.73
2017-08-18T18:22:20.092Z,12.30
2017-08-18T18:24:46.396Z,13.17
2017-08-18T18:27:12.716Z,13.60
2017-08-18T18:29:38.976Z,12.57
2017-08-18T18:32:05.271Z,16.43
2017-08-18T18:34:31.670Z,16.83
2017-08-18T18:36:58.153Z,17.70
2017-08-18T18:39:24.404Z,18.03
2017-08-18T18:41:50.677Z,16.30
2017-08-18T18:44:17.670Z,16.17
2017-08-18T18:46:44.762Z,15.10
2017-08-18T18:49:11.780Z,14.73
2017-08-18T18:51:38.127Z,15.40
2017-08-18T18:54:04.405Z,14.73
2017-08-18T18:56:30.716Z,13.20
2017-08-18T18:58:56.970Z,12.97
2017-08-18T19:01:23.253Z,13.20
2017-08-18T19:03:50.275Z,13.97
2017-08-18T19:06:16.619Z,14.03
2017-08-18T19:08:44.578Z,13.90
2017-08-18T19:11:10.877Z,15.07
2017-08-18T19:13:37.159Z,15.13
2017-08-18T19:16:03.432Z,16.10
2017-08-18T19:18:29.721Z,16.80
2017-08-18T19:20:56.736Z,16.93
2017-08-18T19:23:23.020Z,17.23
2017-08-18T19:25:49.300Z,18.90
2017-08-18T19:28:15.586Z,18.60
2017-08-18T19:30:41.868Z,17.73
2017-08-18T19:33:08.905Z,16.60
2017-08-18T19:35:35.193Z,16.53
2017-08-18T19:38:01.473Z,16.43
2017-08-18T19:40:27.800Z,16.30
2017-08-18T19:42:54.091Z,18.03
2017-08-18T19:45:20.352Z,18.10
2017-08-18T19:47:46.643Z,19.20
2017-08-18T19:50:12.912Z,18.10
2017-08-18T19:52:39.175Z,16.10
2017-08-18T19:55:05.472Z,16.47
2017-08-18T19:57:31.763Z,14.40
2017-08-18T19:59:58.055Z,11.47
2017-08-18T20:02:25.484Z,11.50
2017-08-18T20:04:51.781Z,10.73
2017-08-18T20:07:18.071Z,10.50
2017-08-18T20:09:45.105Z,9.80
2017-08-18T20:12:11.373Z,10.07
2017-08-18T20:14:37.659Z,10.00
2017-08-18T20:17:03.940Z,10.10
2017-08-18T20:19:30.233Z,9.23
2017-08-18T20:21:57.253Z,9.83
2017-08-18T20:24:23.534Z,10.50
2017-08-18T20:26:49.843Z,10.23
2017-08-18T20:29:16.135Z,9.70
2017-08-18T20:31:42.437Z,10.43
2017-08-18T20:34:08.714Z,10.57
2017-08-18T20:36:35.029Z,11.10
2017-08-18T20:39:01.315Z,11.77
2017-08-18T20:41:27.634Z,12.50
2017-08-18T20:43:53.937Z,13.60
2017-08-18T20:46:20.982Z,11.80
2017-08-18T20:48:48.061Z,12.17
2017-08-18T20:51:14.401Z,11.20
2017-08-18T20:53:40.669Z,11.27
2017-08-18T20:56:06.927Z,10.80
2017-08-18T20:58:33.968Z,10.77
2017-08-18T21:01:01.003Z,11.00
2017-08-18T21:03:27.289Z,9.00
2017-08-18T21:05:53.582Z,9.77
2017-08-18T21:08:20.607Z,10.23
2017-08-18T21:10:46.899Z,9.17
2017-08-18T21:13:13.195Z,9.57
2017-08-18T21:15:39.465Z,9.03
2017-08-18T21:18:05.775Z,8.53
2017-08-18T21:20:32.065Z,9.57
2017-08-18T21:22:58.360Z,8.10
2017-08-18T21:25:24.643Z,8.77
2017-08-18T21:27:51.655Z,8.30
2017-08-18T21:30:17.943Z,8.47
2017-08-18T21:32:45.152Z,8.80
2017-08-18T21:35:11.423Z,9.17
2017-08-18T21:37:37.731Z,8.30
2017-08-18T21:40:04.028Z,8.30
2017-08-18T21:42:30.282Z,10.50
2017-08-18T21:44:56.578Z,9.40
2017-08-18T21:47:22.872Z,9.60
2017-08-18T21:49:49.144Z,11.50
2017-08-18T21:52:15.398Z,11.23
2017-08-18T21:54:42.406Z,10.80
2017-08-18T21:57:08.684Z,10.87
2017-08-18T21:59:34.946Z,9.57
2017-08-18T22:02:01.228Z,9.20
2017-08-18T22:04:28.251Z,10.57
2017-08-18T22:06:54.521Z,10.13
2017-08-18T22:09:20.801Z,10.33
2017-08-18T22:11:47.096Z,11.30
2017-08-18T22:14:13.364Z,10.00
2017-08-18T22:16:39.617Z,11.00
2017-08-18T22:19:06.617Z,11.00
2017-08-18T22:21:32.881Z,11.93
2017-08-18T22:23:59.156Z,13.40
2017-08-18T22:26:25.416Z,13.70
2017-08-18T22:28:51.670Z,14.90
2017-08-18T22:31:17.955Z,13.50
2017-08-18T22:33:44.223Z,13.00
2017-08-18T22:36:10.499Z,13.30
2017-08-18T22:38:36.789Z,12.97
2017-08-18T22:41:03.811Z,13.27
2017-08-18T22:43:30.084Z,14.60
2017-08-18T22:45:57.094Z,13.70
2017-08-18T22:48:23.344Z,13.73
2017-08-18T22:50:50.359Z,13.87
2017-08-18T22:53:16.621Z,14.23
2017-08-18T22:55:42.885Z,14.30
2017-08-18T22:58:09.149Z,14.80
2017-08-18T23:00:35.441Z,13.43
2017-08-18T23:03:01.707Z,14.17
2017-08-18T23:05:27.995Z,14.40
2017-08-18T23:07:54.280Z,11.90
2017-08-18T23:10:20.524Z,12.67
2017-08-18T23:12:47.580Z,11.17
2017-08-18T23:15:14.624Z,12.60
2017-08-18T23:17:41.635Z,12.10
2017-08-18T23:20:07.904Z,12.47
2017-08-18T23:22:34.195Z,11.70
2017-08-18T23:25:00.449Z,10.70
2017-08-18T23:27:26.724Z,10.13
2017-08-18T23:29:52.981Z,9.90
2017-08-18T23:32:19.245Z,9.80
2017-08-18T23:34:46.252Z,10.33
2017-08-18T23:37:12.513Z,9.80
2017-08-18T23:39:39.502Z,9.70
2017-08-18T23:42:05.780Z,10.37
2017-08-18T23:44:32.046Z,10.60
2017-08-18T23:46:58.321Z,11.17
2017-08-18T23:49:24.589Z,11.60
2017-08-18T23:51:51.576Z,11.40
2017-08-18T23:54:17.837Z,9.40
2017-08-18T23:56:44.836Z,10.47
2017-08-18T23:59:11.102Z,11.77
